Time;durP1;ratioP1;P1;durP2;ratioP2;P2;SDS_P1;SDS_P2;PMS_P1;PMS_P2;Temp;Humidity;BMP_temperature;BMP_pressure;BME280_temperature;BME280_humidity;BME280_pressure;Samples;Min_cycle;Max_cycle;Signal;HPM_P1;HPM_P2
2022/09/14 00:02:13;;;;;;;3.00;2.67;;;;;;;14.53;81.96;94446.69;5032337;28;20683;-61
2022/09/14 00:04:40;;;;;;;3.35;2.97;;;;;;;14.41;82.18;94448.78;5033125;28;20225;-60
2022/09/14 00:07:06;;;;;;;3.65;2.83;;;;;;;14.54;82.74;94443.19;5032701;28;20189;-63
2022/09/14 00:09:32;;;;;;;3.03;2.53;;;;;;;14.36;83.01;94440.78;5015098;28;20225;-62
2022/09/14 00:11:57;;;;;;;2.50;2.30;;;;;;;14.06;86.03;94396.09;5014547;28;20181;-61
2022/09/14 00:14:23;;;;;;;3.20;2.90;;;;;;;14.38;83.59;94425.28;5032800;28;20599;-62
2022/09/14 00:16:49;;;;;;;2.97;2.70;;;;;;;14.34;85.72;94399.22;5032832;28;20194;-60
2022/09/14 00:19:22;;;;;;;2.63;2.42;;;;;;;14.37;85.19;94411.69;5032845;28;20221;-62
2022/09/14 00:21:54;;;;;;;2.47;2.27;;;;;;;14.39;85.06;94421.75;5032792;28;20221;-61
2022/09/14 00:24:21;;;;;;;3.40;3.03;;;;;;;14.57;83.90;94430.06;5032675;28;20222;-61
2022/09/14 00:26:47;;;;;;;4.18;3.10;;;;;;;14.47;83.98;94442.22;5032505;28;20182;-60
2022/09/14 00:29:12;;;;;;;3.35;3.03;;;;;;;14.39;85.59;94407.22;5032456;28;20236;-63
2022/09/14 00:31:39;;;;;;;3.08;2.80;;;;;;;14.51;83.49;94428.16;5032454;28;20194;-60
2022/09/14 00:34:07;;;;;;;3.40;2.47;;;;;;;14.28;84.49;94413.44;5032542;28;20669;-61
2022/09/14 00:36:36;;;;;;;3.33;2.92;;;;;;;14.41;83.26;94441.09;5032164;28;20182;-62
2022/09/14 00:39:02;;;;;;;2.90;2.60;;;;;;;14.39;84.03;94426.88;5030948;28;20776;-61
2022/09/14 00:41:31;;;;;;;4.90;2.78;;;;;;;14.21;85.45;94411.63;5031365;28;20182;-63
2022/09/14 00:44:05;;;;;;;3.58;3.28;;;;;;;14.42;84.82;94409.47;5038620;22;20222;-61
2022/09/14 00:46:50;;;;;;;4.10;2.83;;;;;;;14.47;85.05;94422.56;5031572;28;20191;-61
2022/09/14 00:49:36;;;;;;;3.92;2.80;;;;;;;14.40;84.47;94433.59;5032261;28;20210;-61
2022/09/14 00:52:16;;;;;;;4.03;2.72;;;;;;;14.11;86.97;94401.56;5032242;28;20281;-61
2022/09/14 00:54:48;;;;;;;2.97;2.55;;;;;;;14.32;85.19;94435.16;5032300;28;20214;-62
2022/09/14 00:57:15;;;;;;;2.80;2.60;;;;;;;14.26;86.65;94405.09;5031941;28;20194;-60
2022/09/14 00:59:42;;;;;;;5.28;3.40;;;;;;;14.32;86.12;94422.38;5031984;28;20306;-61
2022/09/14 01:02:09;;;;;;;3.00;2.70;;;;;;;14.40;85.07;94436.97;5031601;28;20228;-61
2022/09/14 01:04:36;;;;;;;3.60;2.63;;;;;;;14.22;86.60;94411.47;5031501;28;20272;-61
2022/09/14 01:07:16;;;;;;;2.58;2.38;;;;;;;14.41;85.64;94435.19;5031987;28;20190;-62
2022/09/14 01:10:06;;;;;;;2.70;2.50;;;;;;;14.42;85.58;94442.72;5014173;28;20218;-60
2022/09/14 01:12:43;;;;;;;3.40;2.70;;;;;;;14.37;85.06;94444.94;5031205;28;20270;-60
2022/09/14 01:15:25;;;;;;;2.85;2.65;;;;;;;14.43;86.71;94430.72;5031660;28;20727;-62
2022/09/14 01:18:08;;;;;;;4.73;3.40;;;;;;;14.13;88.46;94404.75;5015433;28;20197;-60
2022/09/14 01:21:03;;;;;;;4.63;3.20;;;;;;;14.18;88.13;94414.53;5031633;28;20202;-62
2022/09/14 01:23:46;;;;;;;4.27;2.90;;;;;;;14.34;87.79;94411.22;5002850;28;20668;-60
2022/09/14 01:26:40;;;;;;;4.95;3.00;;;;;;;14.41;85.81;94442.84;5031897;28;20630;-64
2022/09/14 01:29:36;;;;;;;4.65;3.55;;;;;;;14.43;85.21;94453.72;5013786;28;20277;-61
2022/09/14 01:32:16;;;;;;;3.58;3.17;;;;;;;14.42;86.22;94434.25;5031468;28;20570;-60
2022/09/14 01:35:01;;;;;;;4.32;3.08;;;;;;;14.28;86.35;94428.00;5031497;28;20210;-61
2022/09/14 01:37:36;;;;;;;3.83;3.13;;;;;;;14.22;86.60;94426.81;5031219;28;20592;-60
2022/09/14 01:40:23;;;;;;;3.83;3.42;;;;;;;14.34;86.55;94429.91;5031473;28;20213;-61
2022/09/14 01:42:56;;;;;;;3.13;2.83;;;;;;;14.25;86.45;94435.94;5030579;28;20252;-63
2022/09/14 01:45:24;;;;;;;3.38;2.83;;;;;;;14.03;87.09;94410.97;5030479;28;20202;-61
2022/09/14 01:47:54;;;;;;;3.75;3.22;;;;;;;14.11;87.51;94408.44;5031475;28;20186;-61
2022/09/14 01:50:32;;;;;;;4.35;3.00;;;;;;;14.14;88.24;94395.31;5031448;28;20289;-60
2022/09/14 01:53:24;;;;;;;3.72;2.53;;;;;;;14.13;88.25;94414.19;5031499;28;20194;-64
2022/09/14 01:55:59;;;;;;;3.15;2.80;;;;;;;14.11;87.78;94423.75;5017175;28;20197;-63
2022/09/14 01:58:32;;;;;;;3.20;2.92;;;;;;;14.16;88.55;94408.75;5013623;28;20217;-62
2022/09/14 02:01:01;;;;;;;4.97;2.92;;;;;;;14.39;85.94;94453.25;5031388;28;20186;-61
2022/09/14 02:03:42;;;;;;;6.68;2.78;;;;;;;14.39;85.91;94449.88;5031256;28;20659;-62
2022/09/14 02:06:20;;;;;;;5.05;3.38;;;;;;;14.27;87.66;94418.69;5031197;28;20182;-60
2022/09/14 02:08:46;;;;;;;2.90;2.70;;;;;;;14.04;87.92;94408.25;5030876;28;20205;-60
2022/09/14 02:11:11;;;;;;;3.42;3.10;;;;;;;14.23;86.30;94450.63;5031000;28;20644;-60
2022/09/14 02:13:37;;;;;;;3.30;2.97;;;;;;;14.09;89.25;94398.38;5030797;28;20304;-62
2022/09/14 02:16:03;;;;;;;3.40;2.90;;;;;;;14.07;88.66;94407.13;5030979;28;20570;-63
2022/09/14 02:18:30;;;;;;;4.90;2.80;;;;;;;14.02;89.72;94392.28;5013461;28;20248;-64
2022/09/14 02:21:11;;;;;;;5.15;3.05;;;;;;;13.89;88.96;94417.50;5030764;28;20572;-61
2022/09/14 02:23:37;;;;;;;3.03;2.83;;;;;;;13.89;88.66;94414.13;5013023;28;20217;-61
2022/09/14 02:26:03;;;;;;;3.33;3.07;;;;;;;14.14;87.57;94441.34;5041870;22;20288;-62
2022/09/14 02:28:29;;;;;;;3.03;2.67;;;;;;;14.14;86.75;94438.78;5034286;28;20251;-61
2022/09/14 02:31:10;;;;;;;4.18;3.35;;;;;;;14.22;88.39;94405.59;5034347;28;20186;-60
2022/09/14 02:33:47;;;;;;;3.80;3.03;;;;;;;14.11;88.15;94404.13;5034179;28;20309;-61
2022/09/14 02:36:24;;;;;;;3.35;2.60;;;;;;;14.14;87.67;94421.69;5034327;28;20628;-61
2022/09/14 02:39:30;;;;;;;5.13;3.10;;;;;;;14.14;88.83;94403.78;5034240;28;20214;-63
2022/09/14 02:42:07;;;;;;;4.37;3.27;;;;;;;14.04;88.76;94415.91;5019298;28;20675;-65
2022/09/14 02:44:57;;;;;;;3.10;2.87;;;;;;;14.29;86.77;94447.47;5016480;28;20220;-61
2022/09/14 02:47:54;;;;;;;4.60;3.07;;;;;;;14.12;87.70;94443.25;5034240;28;20277;-65
2022/09/14 02:50:31;;;;;;;3.17;2.88;;;;;;;14.17;86.68;94452.06;5016129;28;20582;-62
2022/09/14 02:53:03;;;;;;;3.42;2.33;;;;;;;14.26;86.48;94460.56;5016252;28;20648;-62
2022/09/14 02:55:44;;;;;;;2.85;2.33;;;;;;;14.10;87.52;94432.38;5034261;28;20309;-63
2022/09/14 02:58:11;;;;;;;3.22;2.30;;;;;;;14.00;89.32;94409.50;5016104;28;20198;-62
2022/09/14 03:00:40;;;;;;;3.05;2.58;;;;;;;14.13;88.81;94415.00;5033964;28;20214;-62
2022/09/14 03:03:08;;;;;;;2.70;2.50;;;;;;;14.21;88.55;94419.31;5033714;28;20182;-60
2022/09/14 03:05:34;;;;;;;3.63;2.47;;;;;;;14.22;86.24;94456.72;5033920;28;20206;-63
2022/09/14 03:08:00;;;;;;;4.60;2.72;;;;;;;13.94;89.71;94406.78;5033725;28;20213;-61
2022/09/14 03:10:26;;;;;;;4.40;2.53;;;;;;;14.02;90.74;94396.56;5033563;28;20692;-62
2022/09/14 03:12:52;;;;;;;4.57;3.10;;;;;;;14.09;90.03;94416.25;5033728;28;20193;-61
2022/09/14 03:15:17;;;;;;;3.10;2.77;;;;;;;14.11;89.12;94423.75;5033424;28;20252;-60
2022/09/14 03:17:49;;;;;;;3.92;3.28;;;;;;;14.12;89.98;94413.38;5033383;28;20186;-63
2022/09/14 03:20:18;;;;;;;3.33;3.03;;;;;;;14.18;89.66;94420.41;5015892;28;20309;-61
2022/09/14 03:22:45;;;;;;;3.37;2.77;;;;;;;14.27;89.79;94416.13;5033545;28;20182;-60
2022/09/14 03:25:11;;;;;;;2.83;2.63;;;;;;;14.28;89.90;94425.44;5033653;28;20217;-61
2022/09/14 03:27:38;;;;;;;3.63;3.10;;;;;;;14.30;88.93;94434.53;5033325;28;20186;-61
2022/09/14 03:30:05;;;;;;;3.95;2.88;;;;;;;13.99;91.73;94396.91;5033482;28;20359;-61
2022/09/14 03:32:31;;;;;;;3.28;2.97;;;;;;;14.09;91.48;94400.13;5015739;28;20269;-62
2022/09/14 03:34:56;;;;;;;3.92;2.72;;;;;;;14.21;90.70;94414.19;5033046;28;20218;-63
2022/09/14 03:37:23;;;;;;;4.05;2.97;;;;;;;14.12;91.46;94400.59;5014443;28;20686;-62
2022/09/14 03:39:49;;;;;;;4.47;2.88;;;;;;;14.12;91.32;94402.34;5015456;28;20285;-64
2022/09/14 03:42:15;;;;;;;4.70;3.20;;;;;;;14.24;90.57;94419.78;5033197;28;20188;-61
2022/09/14 03:44:40;;;;;;;2.60;2.40;;;;;;;14.41;88.97;94435.19;5033314;28;20276;-61
2022/09/14 03:47:07;;;;;;;3.00;2.80;;;;;;;14.17;91.56;94400.94;5033248;28;20738;-61
2022/09/14 03:49:32;;;;;;;4.50;4.00;;;;;;;14.00;93.16;94378.84;5033101;28;20202;-61
2022/09/14 03:51:58;;;;;;;5.45;3.72;;;;;;;14.15;89.86;94419.94;5015172;28;20547;-60
2022/09/14 03:54:23;;;;;;;3.70;3.40;;;;;;;13.92;91.38;94403.56;5032875;28;20317;-62
2022/09/14 03:56:50;;;;;;;2.70;2.50;;;;;;;13.97;91.80;94416.69;5032788;28;20276;-63
2022/09/14 03:59:16;;;;;;;3.38;2.97;;;;;;;13.90;92.72;94403.75;5032732;28;20210;-64
2022/09/14 04:01:42;;;;;;;5.37;3.40;;;;;;;13.96;93.83;94389.53;5014954;28;20733;-63
2022/09/14 04:04:07;;;;;;;3.20;2.87;;;;;;;13.96;93.72;94395.44;5015423;28;20210;-62
2022/09/14 04:06:32;;;;;;;5.93;3.08;;;;;;;13.86;94.14;94388.88;5014899;28;20191;-62
2022/09/14 04:08:58;;;;;;;3.42;3.13;;;;;;;13.94;94.62;94389.69;5032574;28;20636;-62
2022/09/14 04:11:24;;;;;;;4.38;3.22;;;;;;;13.95;94.80;94393.06;5032786;28;20187;-63
2022/09/14 04:13:51;;;;;;;6.40;3.75;;;;;;;14.00;94.02;94406.16;5032385;28;20214;-62
2022/09/14 04:16:19;;;;;;;3.27;3.00;;;;;;;14.71;100.00;94443.03;5014748;28;20201;-61
2022/09/14 04:18:45;;;;;;;5.22;3.60;;;;;;;15.45;100.00;94444.59;5014697;28;20210;-61
2022/09/14 04:21:16;;;;;;;3.70;2.95;;;;;;;15.24;100.00;94539.03;5032435;28;20190;-64
2022/09/14 04:23:42;;;;;;;3.85;3.25;;;;;;;15.06;100.00;94586.09;5032304;28;20313;-64
2022/09/14 04:26:17;;;;;;;5.03;3.67;;;;;;;14.88;100.00;94582.88;5014489;28;20284;-62
2022/09/14 04:28:44;;;;;;;4.63;3.92;;;;;;;14.70;100.00;94563.47;5032465;28;20202;-61
2022/09/14 04:31:10;;;;;;;5.95;3.28;;;;;;;14.63;100.00;94563.28;5014691;28;20741;-62
2022/09/14 04:33:37;;;;;;;4.05;3.15;;;;;;;14.44;100.00;94530.31;5032148;28;20531;-64
2022/09/14 04:36:06;;;;;;;5.15;3.65;;;;;;;14.39;100.00;94529.97;5014719;28;20189;-62
2022/09/14 04:38:33;;;;;;;3.67;2.83;;;;;;;14.28;100.00;94515.72;5032354;28;20197;-62
2022/09/14 04:40:59;;;;;;;9.63;3.95;;;;;;;14.35;100.00;94533.00;5032476;28;20193;-61
2022/09/14 04:43:25;;;;;;;4.68;3.72;;;;;;;14.08;100.00;94495.63;5032224;28;20231;-65
2022/09/14 04:45:52;;;;;;;6.50;4.87;;;;;;;13.89;100.00;94501.00;5014283;28;20555;-63
2022/09/14 04:48:18;;;;;;;7.70;5.43;;;;;;;13.96;100.00;94499.44;5031947;28;20201;-61
2022/09/14 04:50:44;;;;;;;9.88;5.60;;;;;;;13.94;100.00;94503.88;5032549;28;20192;-62
2022/09/14 04:53:10;;;;;;;11.47;5.53;;;;;;;13.87;100.00;94497.81;5031942;28;20190;-61
2022/09/14 04:55:35;;;;;;;8.50;5.03;;;;;;;14.65;100.00;94466.72;5032127;28;20213;-60
2022/09/14 04:58:02;;;;;;;11.38;5.75;;;;;;;15.22;100.00;94469.25;5031952;28;20214;-63
2022/09/14 05:00:28;;;;;;;8.55;5.22;;;;;;;15.05;100.00;94566.56;5014177;28;20769;-60
2022/09/14 05:02:53;;;;;;;10.85;5.80;;;;;;;14.84;100.00;94619.97;5031827;28;20194;-63
2022/09/14 05:05:19;;;;;;;15.20;6.65;;;;;;;14.57;100.00;94601.47;5031800;28;20206;-65
2022/09/14 05:07:44;;;;;;;10.05;5.97;;;;;;;14.43;100.00;94594.41;5031820;28;20270;-62
2022/09/14 05:10:10;;;;;;;11.17;6.93;;;;;;;14.34;100.00;94574.88;5031770;28;20205;-62
2022/09/14 05:12:36;;;;;;;10.20;5.97;;;;;;;14.31;100.00;94568.31;5031580;28;20265;-63
2022/09/14 05:15:01;;;;;;;7.18;5.20;;;;;;;14.18;100.00;94562.81;5031589;28;20218;-62
2022/09/14 05:17:27;;;;;;;9.97;5.80;;;;;;;14.16;100.00;94562.13;5014130;28;20182;-63
2022/09/14 05:19:52;;;;;;;6.82;4.90;;;;;;;14.20;100.00;94553.22;5031692;28;20677;-62
2022/09/14 05:22:20;;;;;;;6.80;4.73;;;;;;;14.34;100.00;94575.69;5031518;28;20201;-62
2022/09/14 05:24:45;;;;;;;12.02;6.07;;;;;;;14.00;100.00;94542.41;5030334;28;20214;-63
2022/09/14 05:27:10;;;;;;;9.05;6.55;;;;;;;14.15;100.00;94555.44;5031494;28;20198;-63
2022/09/14 05:29:38;;;;;;;10.00;6.63;;;;;;;14.37;100.00;94572.81;5031435;28;20198;-62
2022/09/14 05:32:04;;;;;;;9.60;6.45;;;;;;;14.31;100.00;94568.31;5031510;28;20197;-63
2022/09/14 05:34:29;;;;;;;14.43;6.28;;;;;;;14.51;100.00;94602.91;5031417;28;20214;-64
2022/09/14 05:36:54;;;;;;;10.82;6.25;;;;;;;14.36;100.00;94573.78;5013018;28;20870;-63
2022/09/14 05:39:20;;;;;;;9.73;6.40;;;;;;;14.39;100.00;94575.19;5030957;28;20206;-61
2022/09/14 05:41:48;;;;;;;10.45;6.88;;;;;;;14.20;100.00;94559.13;5031327;28;20648;-60
2022/09/14 05:44:13;;;;;;;15.27;6.75;;;;;;;14.34;100.00;94560.34;5031452;28;20206;-60
2022/09/14 05:46:39;;;;;;;9.87;6.43;;;;;;;14.40;100.00;94575.06;5031230;28;20716;-63
2022/09/14 05:49:04;;;;;;;9.77;6.57;;;;;;;14.51;100.00;94595.25;5031040;28;20202;-64
2022/09/14 05:51:30;;;;;;;11.43;6.05;;;;;;;14.51;100.00;94613.13;5031097;28;20575;-63
2022/09/14 05:53:57;;;;;;;8.27;5.85;;;;;;;14.37;100.00;94612.91;5030905;28;20558;-62
2022/09/14 05:56:26;;;;;;;8.67;5.90;;;;;;;14.43;100.00;94591.84;5031016;28;20261;-65
2022/09/14 05:58:51;;;;;;;7.90;5.25;;;;;;;14.41;100.00;94563.88;5020203;22;20617;-64
2022/09/14 06:01:22;;;;;;;10.57;5.30;;;;;;;14.49;100.00;94584.34;5038134;22;20947;-63
2022/09/14 06:03:49;;;;;;;8.75;4.55;;;;;;;14.51;100.00;94615.69;5030870;28;20356;-64
2022/09/14 06:06:17;;;;;;;5.78;4.72;;;;;;;14.54;100.00;94610.28;5031078;28;20177;-62
2022/09/14 06:08:43;;;;;;;9.02;4.38;;;;;;;14.67;100.00;94631.09;5030951;28;20214;-65
2022/09/14 06:11:15;;;;;;;5.68;4.60;;;;;;;14.39;100.00;94595.66;5031147;28;21753;-65
2022/09/14 06:13:41;;;;;;;6.55;4.95;;;;;;;14.45;100.00;94618.06;5030773;28;20218;-64
2022/09/14 06:16:12;;;;;;;9.50;4.80;;;;;;;14.68;100.00;94667.75;5030733;28;20575;-63
2022/09/14 06:18:39;;;;;;;6.97;4.38;;;;;;;14.51;100.00;94636.16;5030839;28;20210;-64
2022/09/14 06:21:05;;;;;;;7.10;4.23;;;;;;;14.55;100.00;94629.78;5030938;28;20186;-62
2022/09/14 06:23:31;;;;;;;6.95;4.50;;;;;;;14.61;100.00;94626.63;5029925;28;20245;-62
2022/09/14 06:25:59;;;;;;;5.75;4.95;;;;;;;14.44;100.00;94619.84;5038407;22;20225;-61
2022/09/14 06:28:26;;;;;;;7.07;4.57;;;;;;;14.51;100.00;94625.94;5030471;28;20201;-65
2022/09/14 06:30:52;;;;;;;9.13;5.03;;;;;;;14.58;100.00;94629.50;5030645;28;20249;-64
2022/09/14 06:33:19;;;;;;;9.35;5.03;;;;;;;14.90;100.00;94639.81;5029267;28;20213;-64
2022/09/14 06:36:02;;;;;;;8.63;4.50;;;;;;;15.04;100.00;94590.56;5028560;28;20198;-62
2022/09/14 06:38:28;;;;;;;8.60;4.72;;;;;;;15.57;100.00;94461.22;5029087;28;20327;-61
2022/09/14 06:40:59;;;;;;;5.20;4.63;;;;;;;15.55;100.00;94606.63;5013069;28;20244;-60
2022/09/14 06:43:27;;;;;;;12.13;5.15;;;;;;;15.52;100.00;94614.63;5030378;28;20567;-63
2022/09/14 06:46:01;;;;;;;11.15;4.57;;;;;;;15.64;100.00;94636.41;5012857;28;20202;-62
2022/09/14 06:48:29;;;;;;;7.53;4.20;;;;;;;15.78;100.00;94622.94;5030487;28;20656;-64
2022/09/14 06:50:54;;;;;;;6.53;4.70;;;;;;;15.70;100.00;94654.50;5030453;28;20555;-63
2022/09/14 06:53:20;;;;;;;9.68;5.43;;;;;;;15.85;100.00;94659.78;5012478;28;20195;-62
2022/09/14 06:55:46;;;;;;;8.18;5.40;;;;;;;16.00;100.00;94667.63;5030454;28;20710;-63
2022/09/14 06:58:12;;;;;;;9.80;6.10;;;;;;;15.76;100.00;94681.25;5030290;28;20216;-62
2022/09/14 07:00:37;;;;;;;7.53;4.93;;;;;;;16.00;100.00;94663.28;5030278;28;20301;-62
2022/09/14 07:03:02;;;;;;;13.10;5.68;;;;;;;16.07;100.00;94671.13;5012597;28;20194;-61
2022/09/14 07:05:29;;;;;;;11.65;5.18;;;;;;;16.07;100.00;94673.72;5030367;28;20220;-62
2022/09/14 07:07:56;;;;;;;11.90;4.88;;;;;;;16.21;100.00;94696.94;5011470;28;20296;-61
2022/09/14 07:10:21;;;;;;;6.50;4.40;;;;;;;16.25;99.93;94716.16;5029644;28;20217;-61
2022/09/14 07:12:47;;;;;;;5.22;4.35;;;;;;;16.09;100.00;94682.84;5033016;28;20568;-64
2022/09/14 07:15:13;;;;;;;8.35;5.55;;;;;;;16.10;100.00;94684.44;5033508;28;20221;-64
2022/09/14 07:17:38;;;;;;;15.73;9.80;;;;;;;16.28;99.95;94708.13;5015765;28;20174;-62
2022/09/14 07:20:06;;;;;;;4.47;4.07;;;;;;;16.38;99.02;94716.44;5033221;28;20574;-62
2022/09/14 07:22:34;;;;;;;8.60;4.40;;;;;;;16.48;100.00;94677.81;5016034;28;20178;-62
2022/09/14 07:25:00;;;;;;;11.75;4.57;;;;;;;16.76;96.08;94763.75;5033508;28;20246;-64
2022/09/14 07:27:26;;;;;;;4.97;3.88;;;;;;;16.79;96.73;94741.09;5033312;28;20296;-62
2022/09/14 07:29:51;;;;;;;5.43;4.00;;;;;;;16.75;94.38;94788.63;5033108;28;20199;-63
2022/09/14 07:32:16;;;;;;;5.15;3.60;;;;;;;16.74;96.52;94730.53;5033288;28;20182;-60
2022/09/14 07:34:42;;;;;;;9.43;4.40;;;;;;;16.92;95.68;94737.22;5032891;28;20214;-63
2022/09/14 07:37:08;;;;;;;18.02;4.75;;;;;;;16.78;98.13;94682.22;5014043;28;20625;-63
2022/09/14 07:39:34;;;;;;;6.75;4.40;;;;;;;16.94;96.68;94712.16;5032506;28;20773;-63
2022/09/14 07:42:00;;;;;;;7.65;5.43;;;;;;;17.09;96.14;94725.91;5015477;28;20328;-62
2022/09/14 07:44:25;;;;;;;6.60;4.22;;;;;;;16.97;97.45;94701.56;5033104;28;20293;-64
2022/09/14 07:46:51;;;;;;;9.07;5.32;;;;;;;17.14;97.20;94706.44;5033526;28;20277;-63
2022/09/14 07:49:16;;;;;;;14.60;4.72;;;;;;;17.19;97.14;94700.81;5032970;28;20710;-61
2022/09/14 07:51:42;;;;;;;7.65;4.25;;;;;;;17.14;95.70;94733.91;5033261;28;20187;-65
2022/09/14 07:54:11;;;;;;;8.73;4.15;;;;;;;17.20;96.21;94725.53;5032886;28;20305;-60
2022/09/14 07:56:37;;;;;;;8.20;4.70;;;;;;;17.46;95.85;94731.97;5032978;28;20197;-64
2022/09/14 07:59:03;;;;;;;9.07;5.15;;;;;;;17.50;93.61;94776.16;5032510;28;20307;-62
2022/09/14 08:01:30;;;;;;;6.47;4.55;;;;;;;17.59;94.35;94752.81;5014626;28;20217;-62
2022/09/14 08:04:01;;;;;;;9.48;4.78;;;;;;;17.69;94.59;94750.03;5031565;28;20217;-61
2022/09/14 08:06:27;;;;;;;9.23;4.88;;;;;;;17.73;94.82;94746.16;5031275;28;20190;-63
2022/09/14 08:08:53;;;;;;;4.97;3.90;;;;;;;17.88;94.28;94757.28;5032868;28;20225;-60
2022/09/14 08:11:23;;;;;;;6.97;4.00;;;;;;;17.90;94.25;94749.38;5032794;28;20687;-61
2022/09/14 08:14:00;;;;;;;8.00;4.22;;;;;;;18.10;93.88;94764.19;5032522;28;20217;-62
2022/09/14 08:16:27;;;;;;;9.63;4.55;;;;;;;18.10;93.35;94766.00;5014931;28;20197;-60
2022/09/14 08:19:01;;;;;;;7.97;4.63;;;;;;;18.23;93.10;94754.13;5032735;28;20214;-62
2022/09/14 08:21:28;;;;;;;10.30;4.10;;;;;;;18.19;93.29;94754.66;5033122;28;20209;-61
2022/09/14 08:23:53;;;;;;;11.85;4.78;;;;;;;18.21;93.48;94735.50;5032281;28;20260;-64
2022/09/14 08:26:22;;;;;;;9.05;4.13;;;;;;;18.36;91.56;94774.13;5015073;28;20214;-62
2022/09/14 08:28:49;;;;;;;8.35;3.83;;;;;;;18.57;90.82;94779.44;5032451;28;20206;-63
2022/09/14 08:31:26;;;;;;;6.93;3.88;;;;;;;18.79;90.02;94800.94;5032933;28;20186;-60
2022/09/14 08:33:57;;;;;;;10.00;4.70;;;;;;;18.81;88.65;94820.41;5032395;28;20249;-63
2022/09/14 08:36:25;;;;;;;9.02;3.70;;;;;;;18.73;88.57;94804.22;5032489;28;20198;-62
2022/09/14 08:38:50;;;;;;;7.85;4.03;;;;;;;19.22;88.76;94805.34;5032175;28;20754;-63
2022/09/14 08:41:39;;;;;;;8.02;4.30;;;;;;;19.68;87.09;94842.03;5032378;28;20206;-61
2022/09/14 08:44:25;;;;;;;5.47;3.50;;;;;;;19.84;77.56;94849.56;5032309;28;20260;-61
2022/09/14 08:46:50;;;;;;;12.10;3.70;;;;;;;19.94;75.28;94881.06;5032467;28;20239;-60
2022/09/14 08:49:35;;;;;;;9.45;4.53;;;;;;;20.23;72.81;94893.94;5032081;28;20233;-62
2022/09/14 08:52:01;;;;;;;7.65;4.25;;;;;;;20.42;69.45;94861.53;5032507;28;20221;-61
2022/09/14 08:54:26;;;;;;;5.90;3.83;;;;;;;20.50;66.84;94902.75;5014176;28;20253;-62
2022/09/14 08:57:13;;;;;;;5.30;3.58;;;;;;;20.76;64.07;94957.25;5031913;28;20186;-62
2022/09/14 08:59:45;;;;;;;10.57;3.83;;;;;;;20.98;65.60;94896.81;5032118;28;20206;-61
2022/09/14 09:02:28;;;;;;;4.88;3.80;;;;;;;21.07;64.97;94898.28;5032088;28;20198;-62
2022/09/14 09:05:21;;;;;;;6.47;3.63;;;;;;;21.39;65.72;94874.44;5013929;28;20217;-60
2022/09/14 09:08:17;;;;;;;4.35;3.45;;;;;;;21.80;65.35;94871.06;5031786;28;20194;-61
2022/09/14 09:10:44;;;;;;;6.70;3.30;;;;;;;22.14;64.49;94886.56;5031543;28;20186;-62
2022/09/14 09:13:17;;;;;;;6.72;3.63;;;;;;;22.42;61.11;94962.38;5031774;28;20230;-60
2022/09/14 09:15:52;;;;;;;8.35;3.47;;;;;;;22.61;60.92;94934.94;5031799;28;20686;-61
2022/09/14 09:18:31;;;;;;;5.93;3.80;;;;;;;22.81;57.81;95008.38;5031539;28;20178;-60
2022/09/14 09:21:03;;;;;;;7.43;3.50;;;;;;;22.89;59.37;94941.56;5031881;28;20194;-62
2022/09/14 09:23:32;;;;;;;5.28;2.88;;;;;;;23.02;59.37;94933.81;5031718;28;20343;-63
2022/09/14 09:26:06;;;;;;;9.13;3.63;;;;;;;22.69;57.55;94964.06;5031740;28;20209;-63
2022/09/14 09:28:33;;;;;;;5.95;3.67;;;;;;;22.61;57.70;94959.06;5031584;28;20181;-62
2022/09/14 09:31:05;;;;;;;6.78;3.20;;;;;;;23.20;57.23;94959.97;5031376;28;20194;-62
2022/09/14 09:33:32;;;;;;;5.93;3.10;;;;;;;23.38;56.35;94974.16;5030493;28;20300;-62
2022/09/14 09:35:58;;;;;;;7.53;3.22;;;;;;;23.41;55.74;94974.56;5030884;28;20190;-62
2022/09/14 09:38:27;;;;;;;3.95;2.95;;;;;;;23.47;55.75;94963.38;5031332;28;20240;-60
2022/09/14 09:41:04;;;;;;;9.07;3.40;;;;;;;23.28;55.93;94943.38;5031485;28;20190;-61
2022/09/14 09:43:29;;;;;;;3.88;2.92;;;;;;;23.53;54.46;94978.16;5031317;28;20204;-61
2022/09/14 09:46:06;;;;;;;7.72;3.40;;;;;;;23.49;54.18;95002.13;5031275;28;20221;-62
2022/09/14 09:48:42;;;;;;;5.00;3.10;;;;;;;23.93;53.05;95008.25;5013311;28;20178;-61
2022/09/14 09:51:12;;;;;;;4.57;3.22;;;;;;;24.39;53.54;94984.75;5031129;28;20186;-62
2022/09/14 09:53:47;;;;;;;7.78;3.63;;;;;;;24.67;51.92;95028.63;4996853;28;20263;-63
2022/09/14 09:56:24;;;;;;;5.35;3.38;;;;;;;25.00;51.10;95042.31;5031239;28;20188;-62
2022/09/14 09:58:50;;;;;;;3.92;3.40;;;;;;;24.92;50.29;95040.78;5031107;28;20209;-63
2022/09/14 10:01:32;;;;;;;8.20;3.80;;;;;;;24.62;50.94;95016.28;5031664;28;20269;-63
2022/09/14 10:04:03;;;;;;;3.80;2.95;;;;;;;25.11;50.61;95030.47;5030918;28;20209;-63
2022/09/14 10:06:29;;;;;;;8.63;3.70;;;;;;;25.28;48.96;95058.38;5031086;28;20224;-62
2022/09/14 10:08:56;;;;;;;5.30;3.13;;;;;;;25.14;45.94;95145.34;5031036;28;20206;-63
2022/09/14 10:11:32;;;;;;;6.93;3.13;;;;;;;24.92;46.77;95089.41;5012992;28;20187;-63
2022/09/14 10:13:58;;;;;;;3.85;2.92;;;;;;;24.90;46.97;95068.00;5030803;28;20217;-64
2022/09/14 10:16:33;;;;;;;3.92;2.70;;;;;;;24.80;46.28;95078.03;5031021;28;20190;-63
2022/09/14 10:19:01;;;;;;;7.13;3.28;;;;;;;25.08;46.10;95078.50;5030877;28;20206;-62
2022/09/14 10:21:27;;;;;;;4.93;3.15;;;;;;;25.19;45.63;95088.25;5031087;28;20260;-60
2022/09/14 10:24:18;;;;;;;5.30;2.78;;;;;;;25.72;44.85;95034.84;5030643;28;20214;-62
2022/09/14 10:26:44;;;;;;;2.95;2.65;;;;;;;26.14;45.69;94993.38;5020218;28;20647;-62
2022/09/14 10:29:34;;;;;;;5.63;3.33;;;;;;;26.50;42.96;95061.97;5030275;28;20603;-62
2022/09/14 10:32:22;;;;;;;5.78;3.00;;;;;;;26.40;42.18;95056.44;5029243;28;20194;-61
2022/09/14 10:34:50;;;;;;;4.78;3.22;;;;;;;26.34;41.41;95077.41;5030483;28;20659;-62
2022/09/14 10:37:28;;;;;;;8.13;2.63;;;;;;;26.57;43.06;94941.91;5030564;28;20273;-62
2022/09/14 10:40:14;;;;;;;6.20;2.72;;;;;;;26.85;44.51;94883.91;5012672;28;20209;-61
2022/09/14 10:42:48;;;;;;;9.90;2.90;;;;;;;26.79;40.86;94970.94;5030723;28;20191;-61
2022/09/14 10:45:26;;;;;;;6.68;2.70;;;;;;;26.63;40.47;94970.50;5031094;28;20209;-62
2022/09/14 10:48:02;;;;;;;4.72;3.22;;;;;;;26.73;40.67;94950.94;5034009;28;20190;-62
2022/09/14 10:50:41;;;;;;;4.35;2.50;;;;;;;27.06;40.74;94946.84;5034011;28;20208;-62
2022/09/14 10:53:27;;;;;;;8.88;3.25;;;;;;;27.06;42.01;94912.13;5033818;28;20194;-61
2022/09/14 10:56:02;;;;;;;7.10;3.03;;;;;;;27.13;38.87;94991.91;5033645;28;20194;-61
2022/09/14 10:58:49;;;;;;;6.68;3.03;;;;;;;27.52;39.84;94951.38;5032436;28;20715;-62
2022/09/14 11:01:39;;;;;;;5.53;3.10;;;;;;;27.26;40.14;94923.84;5013683;28;20202;-61
2022/09/14 11:04:22;;;;;;;6.65;3.13;;;;;;;26.74;40.35;94924.66;5033811;28;20202;-61
2022/09/14 11:07:14;;;;;;;6.43;3.08;;;;;;;26.87;38.75;94954.94;5033976;28;20186;-61
2022/09/14 11:09:56;;;;;;;4.57;2.83;;;;;;;26.68;39.71;94927.31;5033533;28;20253;-61
2022/09/14 11:12:43;;;;;;;4.93;2.65;;;;;;;27.08;39.67;94923.13;5033719;28;20217;-62
2022/09/14 11:15:37;;;;;;;13.85;3.38;;;;;;;27.73;39.55;94929.09;5033501;28;20217;-63
2022/09/14 11:18:20;;;;;;;4.90;2.63;;;;;;;27.77;35.98;95032.16;5024173;28;20205;-61
2022/09/14 11:21:05;;;;;;;7.88;2.40;;;;;;;27.92;37.23;94993.28;5033457;28;20542;-60
2022/09/14 11:23:48;;;;;;;3.58;2.42;;;;;;;28.38;37.91;94967.13;5033314;28;20361;-60
2022/09/14 11:26:17;;;;;;;5.13;3.00;;;;;;;28.06;37.47;94958.84;5032584;28;20336;-60
2022/09/14 11:28:50;;;;;;;5.72;2.90;;;;;;;28.35;38.38;94907.38;5031047;28;20213;-62
2022/09/14 11:31:22;;;;;;;4.00;2.80;;;;;;;28.76;36.89;94974.41;5032469;28;20223;-62
2022/09/14 11:34:22;;;;;;;4.60;2.83;;;;;;;29.11;36.78;94954.06;5040524;22;20241;-61
2022/09/14 11:36:54;;;;;;;7.88;3.08;;;;;;;28.93;36.38;94964.75;4962375;28;20205;-61
2022/09/14 11:39:48;;;;;;;7.63;2.70;;;;;;;29.50;35.95;94960.22;5041008;22;20226;-62
2022/09/14 11:42:32;;;;;;;4.47;3.17;;;;;;;29.78;34.76;95013.38;5025367;28;20198;-61
2022/09/14 11:45:13;;;;;;;9.15;2.75;;;;;;;29.67;35.47;94976.75;5033109;28;20209;-63
2022/09/14 11:47:45;;;;;;;4.20;1.65;;;;;;;29.32;32.45;95055.59;5032915;28;20225;-61
2022/09/14 11:50:20;;;;;;;3.97;1.65;;;;;;;28.82;31.00;95075.56;5033410;28;20305;-62